< < Back
Terminal Aerodrome Forecast


Current Version              Previous Versions:   1  2  3  4  5  6  7  8  9  

Terminal Aerodrome Forecast

949
FTUS42 KTAE 240500
TAFDHN
TAF
KDHN 240520Z 2406/2506 00000KT P6SM OVC200
     FM241500 02005KT P6SM SKC
     FM250100 34003KT P6SM SKC=



Latest METAR

612
SAUS70 KWBC 241100 RRA
MTRDHN
METAR KDHN 241053Z 00000KT 10SM CLR 11/08 A3008 RMK AO2 SLP185
T01060083


USA.gov is the U.S. government's official web portal to all federal, state and local government web resources and services.